Current | Forecast
Updated: 11:30 PM JST on July 22, 2017
Observed at Chitose AB, Japan
Temperature 68°F
Humidity 100%
Dew Point 68°F
Wind North at 8 mph
Pressure 29.77 in (Steady)
Conditions Mostly Cloudy
Visibility 6.2 miles
UV 0 out of 16
Clouds (FEW) : 1500 ft
Mostly Cloudy (BKN) : 2500 ft
Yesterday's Maximum 77°F
Yesterday's Minimum 66°F approx.
Yesterday's Cooling Degree Days 7 approx.
Sunrise4:18 AM JST
Sunset7:07 PM JST
Moon Rise2:49 AM JST
Moon Set5:54 PM JST
Moon PhaseMoon Phase
Waning Crescent
Raw METARMETAR RJCC 221430Z 01007KT 9999 FEW015 BKN025 20/20 Q1008 RMK 1ST015 7SC025 A2978


Monday
. High: 62° F.
Tuesday
. High: 57° F.
Wednesday
. High: 59° F.
Thursday
. High: 64° F.
Friday
. High: 60° F.
Saturday
. High: 55° F.
Sunday
. High: 60° F.
Monday
. High: 55° F.

Units: English | Metric

Find the Weather for any City, State or Zipcode, or Country:

U.S. State List | Severe Weather | Tropical Storms | Ski Conditions
United States | Canada | Central America | South America | Asia | Europe | Australia | Africa | Islands

Weather Underground

© Copyright 2017
The Weather Company, LLC